sensor_id;sensor_type;location;lat;lon;timestamp;temperature;humidity
3086;DHT22;52812;48.960;9.108;2024-03-07T00:02:04;4.40;99.90
3086;DHT22;52812;48.960;9.108;2024-03-07T00:04:30;4.40;99.90
3086;DHT22;52812;48.960;9.108;2024-03-07T00:06:55;4.40;99.90
3086;DHT22;52812;48.960;9.108;2024-03-07T00:09:21;4.40;99.90
3086;DHT22;52812;48.960;9.108;2024-03-07T00:11:50;4.40;99.90
3086;DHT22;52812;48.960;9.108;2024-03-07T00:14:15;4.40;99.90
3086;DHT22;52812;48.960;9.108;2024-03-07T00:16:41;4.40;99.90
3086;DHT22;52812;48.960;9.108;2024-03-07T00:19:06;4.50;99.90
3086;DHT22;52812;48.960;9.108;2024-03-07T00:21:32;4.50;99.90
3086;DHT22;52812;48.960;9.108;2024-03-07T00:23:58;4.50;99.90
3086;DHT22;52812;48.960;9.108;2024-03-07T00:26:24;4.50;99.90
3086;DHT22;52812;48.960;9.108;2024-03-07T00:28:50;4.50;99.90
3086;DHT22;52812;48.960;9.108;2024-03-07T00:31:16;4.50;99.90
3086;DHT22;52812;48.960;9.108;2024-03-07T00:33:42;4.40;99.90
3086;DHT22;52812;48.960;9.108;2024-03-07T00:36:08;4.20;99.90
3086;DHT22;52812;48.960;9.108;2024-03-07T00:38:33;4.00;99.90
3086;DHT22;52812;48.960;9.108;2024-03-07T00:40:59;3.90;99.90
3086;DHT22;52812;48.960;9.108;2024-03-07T00:43:26;3.80;99.90
3086;DHT22;52812;48.960;9.108;2024-03-07T00:45:51;3.70;99.90
3086;DHT22;52812;48.960;9.108;2024-03-07T00:48:17;3.60;99.90
3086;DHT22;52812;48.960;9.108;2024-03-07T00:50:43;3.50;99.90
3086;DHT22;52812;48.960;9.108;2024-03-07T00:53:09;3.50;99.90
3086;DHT22;52812;48.960;9.108;2024-03-07T00:55:34;3.30;99.90
3086;DHT22;52812;48.960;9.108;2024-03-07T00:58:00;3.30;99.90
3086;DHT22;52812;48.960;9.108;2024-03-07T01:00:25;3.30;99.90
3086;DHT22;52812;48.960;9.108;2024-03-07T01:02:51;3.20;99.90
3086;DHT22;52812;48.960;9.108;2024-03-07T01:05:19;3.20;99.90
3086;DHT22;52812;48.960;9.108;2024-03-07T01:07:44;3.10;99.90
3086;DHT22;52812;48.960;9.108;2024-03-07T01:10:13;3.00;99.90
3086;DHT22;52812;48.960;9.108;2024-03-07T01:12:39;3.00;99.90
3086;DHT22;52812;48.960;9.108;2024-03-07T01:15:05;3.00;99.90
3086;DHT22;52812;48.960;9.108;2024-03-07T01:17:32;3.00;99.90
3086;DHT22;52812;48.960;9.108;2024-03-07T01:19:57;2.80;99.90
3086;DHT22;52812;48.960;9.108;2024-03-07T01:22:24;2.70;99.90
3086;DHT22;52812;48.960;9.108;2024-03-07T01:24:49;2.70;99.90
3086;DHT22;52812;48.960;9.108;2024-03-07T01:27:16;2.70;99.90
3086;DHT22;52812;48.960;9.108;2024-03-07T01:29:42;2.60;99.90
3086;DHT22;52812;48.960;9.108;2024-03-07T01:32:10;2.50;99.90
3086;DHT22;52812;48.960;9.108;2024-03-07T01:34:36;2.50;99.90
3086;DHT22;52812;48.960;9.108;2024-03-07T01:37:02;2.50;99.90
3086;DHT22;52812;48.960;9.108;2024-03-07T01:39:27;2.50;99.90
3086;DHT22;52812;48.960;9.108;2024-03-07T01:41:53;2.50;99.90
3086;DHT22;52812;48.960;9.108;2024-03-07T01:44:19;2.40;99.90
3086;DHT22;52812;48.960;9.108;2024-03-07T01:46:45;2.40;99.90
3086;DHT22;52812;48.960;9.108;2024-03-07T01:49:11;2.40;99.90
3086;DHT22;52812;48.960;9.108;2024-03-07T01:51:37;2.50;99.90
3086;DHT22;52812;48.960;9.108;2024-03-07T01:54:04;2.40;99.90
3086;DHT22;52812;48.960;9.108;2024-03-07T01:56:30;2.40;99.90
3086;DHT22;52812;48.960;9.108;2024-03-07T01:58:56;2.40;99.90
3086;DHT22;52812;48.960;9.108;2024-03-07T02:01:23;2.30;99.90
3086;DHT22;52812;48.960;9.108;2024-03-07T02:03:49;2.30;99.90
3086;DHT22;52812;48.960;9.108;2024-03-07T02:06:14;2.30;99.90
3086;DHT22;52812;48.960;9.108;2024-03-07T02:08:41;2.40;99.90
3086;DHT22;52812;48.960;9.108;2024-03-07T02:11:06;2.40;99.90
3086;DHT22;52812;48.960;9.108;2024-03-07T02:13:32;2.30;99.90
3086;DHT22;52812;48.960;9.108;2024-03-07T02:15:58;2.30;99.90
3086;DHT22;52812;48.960;9.108;2024-03-07T02:18:24;2.30;99.90
3086;DHT22;52812;48.960;9.108;2024-03-07T02:20:50;2.20;99.90
3086;DHT22;52812;48.960;9.108;2024-03-07T02:23:15;2.20;99.90
3086;DHT22;52812;48.960;9.108;2024-03-07T02:25:41;2.10;99.90
3086;DHT22;52812;48.960;9.108;2024-03-07T02:28:07;2.10;99.90
3086;DHT22;52812;48.960;9.108;2024-03-07T02:30:32;2.00;99.90
3086;DHT22;52812;48.960;9.108;2024-03-07T02:32:59;1.90;99.90
3086;DHT22;52812;48.960;9.108;2024-03-07T02:35:32;1.80;99.90
3086;DHT22;52812;48.960;9.108;2024-03-07T02:37:59;1.80;99.90
3086;DHT22;52812;48.960;9.108;2024-03-07T02:40:24;1.80;99.90
3086;DHT22;52812;48.960;9.108;2024-03-07T02:42:50;1.80;99.90
3086;DHT22;52812;48.960;9.108;2024-03-07T02:45:15;1.80;99.90
3086;DHT22;52812;48.960;9.108;2024-03-07T02:47:41;1.70;99.90
3086;DHT22;52812;48.960;9.108;2024-03-07T02:50:08;1.70;99.90
3086;DHT22;52812;48.960;9.108;2024-03-07T02:52:34;1.70;99.90
3086;DHT22;52812;48.960;9.108;2024-03-07T02:55:00;1.70;99.90
3086;DHT22;52812;48.960;9.108;2024-03-07T02:57:25;1.60;99.90
3086;DHT22;52812;48.960;9.108;2024-03-07T02:59:51;1.60;99.90
3086;DHT22;52812;48.960;9.108;2024-03-07T03:02:16;1.50;99.90
3086;DHT22;52812;48.960;9.108;2024-03-07T03:04:42;1.50;99.90
3086;DHT22;52812;48.960;9.108;2024-03-07T03:07:08;1.50;99.90
3086;DHT22;52812;48.960;9.108;2024-03-07T03:09:34;1.30;99.90
3086;DHT22;52812;48.960;9.108;2024-03-07T03:11:59;1.30;99.90
3086;DHT22;52812;48.960;9.108;2024-03-07T03:14:25;1.30;99.90
3086;DHT22;52812;48.960;9.108;2024-03-07T03:16:51;1.30;99.90
3086;DHT22;52812;48.960;9.108;2024-03-07T03:19:16;1.30;99.90
3086;DHT22;52812;48.960;9.108;2024-03-07T03:21:42;1.30;99.90
3086;DHT22;52812;48.960;9.108;2024-03-07T03:24:08;1.40;99.90
3086;DHT22;52812;48.960;9.108;2024-03-07T03:26:33;1.40;99.90
3086;DHT22;52812;48.960;9.108;2024-03-07T03:28:59;1.50;99.90
3086;DHT22;52812;48.960;9.108;2024-03-07T03:31:25;1.60;99.90
3086;DHT22;52812;48.960;9.108;2024-03-07T03:33:50;1.60;99.90
3086;DHT22;52812;48.960;9.108;2024-03-07T03:36:17;1.70;99.90
3086;DHT22;52812;48.960;9.108;2024-03-07T03:38:44;1.80;99.90
3086;DHT22;52812;48.960;9.108;2024-03-07T03:41:17;1.80;99.90
3086;DHT22;52812;48.960;9.108;2024-03-07T03:43:43;1.80;99.90
3086;DHT22;52812;48.960;9.108;2024-03-07T03:46:12;1.70;99.90
3086;DHT22;52812;48.960;9.108;2024-03-07T03:48:41;1.70;99.90
3086;DHT22;52812;48.960;9.108;2024-03-07T03:51:07;1.80;99.90
3086;DHT22;52812;48.960;9.108;2024-03-07T03:53:33;1.80;99.90
3086;DHT22;52812;48.960;9.108;2024-03-07T03:55:59;1.80;99.90
3086;DHT22;52812;48.960;9.108;2024-03-07T03:58:25;1.90;99.90
3086;DHT22;52812;48.960;9.108;2024-03-07T04:00:50;1.80;99.90
3086;DHT22;52812;48.960;9.108;2024-03-07T04:03:16;1.80;99.90
3086;DHT22;52812;48.960;9.108;2024-03-07T04:05:42;1.80;99.90
3086;DHT22;52812;48.960;9.108;2024-03-07T04:08:08;1.80;99.90
3086;DHT22;52812;48.960;9.108;2024-03-07T04:10:35;1.80;99.90
3086;DHT22;52812;48.960;9.108;2024-03-07T04:13:00;1.80;99.90
3086;DHT22;52812;48.960;9.108;2024-03-07T04:15:26;1.70;99.90
3086;DHT22;52812;48.960;9.108;2024-03-07T04:17:52;1.70;99.90
3086;DHT22;52812;48.960;9.108;2024-03-07T04:20:18;1.60;99.90
3086;DHT22;52812;48.960;9.108;2024-03-07T04:22:44;1.60;99.90
3086;DHT22;52812;48.960;9.108;2024-03-07T04:25:09;1.50;99.90
3086;DHT22;52812;48.960;9.108;2024-03-07T04:27:36;1.50;99.90
3086;DHT22;52812;48.960;9.108;2024-03-07T04:30:06;1.60;99.90
3086;DHT22;52812;48.960;9.108;2024-03-07T04:32:33;1.50;99.90
3086;DHT22;52812;48.960;9.108;2024-03-07T04:35:03;1.50;99.90
3086;DHT22;52812;48.960;9.108;2024-03-07T04:37:36;1.40;99.90
3086;DHT22;52812;48.960;9.108;2024-03-07T04:40:09;1.30;99.90
3086;DHT22;52812;48.960;9.108;2024-03-07T04:42:45;1.20;99.90
3086;DHT22;52812;48.960;9.108;2024-03-07T04:45:11;1.00;99.90
3086;DHT22;52812;48.960;9.108;2024-03-07T04:47:42;0.90;99.90
3086;DHT22;52812;48.960;9.108;2024-03-07T04:50:09;0.90;99.90
3086;DHT22;52812;48.960;9.108;2024-03-07T04:52:38;0.90;99.90
3086;DHT22;52812;48.960;9.108;2024-03-07T04:55:06;0.90;99.90
3086;DHT22;52812;48.960;9.108;2024-03-07T04:57:34;0.90;99.90
3086;DHT22;52812;48.960;9.108;2024-03-07T05:00:01;0.80;99.90
3086;DHT22;52812;48.960;9.108;2024-03-07T05:02:28;0.70;99.90
3086;DHT22;52812;48.960;9.108;2024-03-07T05:04:54;0.70;99.90
3086;DHT22;52812;48.960;9.108;2024-03-07T05:07:20;0.70;99.90
3086;DHT22;52812;48.960;9.108;2024-03-07T05:09:45;0.70;99.90
3086;DHT22;52812;48.960;9.108;2024-03-07T05:12:11;0.70;99.90
3086;DHT22;52812;48.960;9.108;2024-03-07T05:14:36;0.70;99.90
3086;DHT22;52812;48.960;9.108;2024-03-07T05:17:02;0.60;99.90
3086;DHT22;52812;48.960;9.108;2024-03-07T05:19:31;0.60;99.90
3086;DHT22;52812;48.960;9.108;2024-03-07T05:21:57;0.50;99.90
3086;DHT22;52812;48.960;9.108;2024-03-07T05:24:23;0.50;99.90
3086;DHT22;52812;48.960;9.108;2024-03-07T05:26:49;0.40;99.90
3086;DHT22;52812;48.960;9.108;2024-03-07T05:29:14;0.40;99.90
3086;DHT22;52812;48.960;9.108;2024-03-07T05:31:40;0.40;99.90
3086;DHT22;52812;48.960;9.108;2024-03-07T05:34:15;0.30;99.90
3086;DHT22;52812;48.960;9.108;2024-03-07T05:36:47;0.20;99.90
3086;DHT22;52812;48.960;9.108;2024-03-07T05:39:14;0.30;99.90
3086;DHT22;52812;48.960;9.108;2024-03-07T05:41:40;0.30;99.90
3086;DHT22;52812;48.960;9.108;2024-03-07T05:44:06;0.20;99.90
3086;DHT22;52812;48.960;9.108;2024-03-07T05:46:42;0.20;99.90
3086;DHT22;52812;48.960;9.108;2024-03-07T05:49:12;0.20;99.90
3086;DHT22;52812;48.960;9.108;2024-03-07T05:51:37;0.20;99.90
3086;DHT22;52812;48.960;9.108;2024-03-07T05:54:03;0.20;99.90
3086;DHT22;52812;48.960;9.108;2024-03-07T05:56:35;0.20;99.90
3086;DHT22;52812;48.960;9.108;2024-03-07T05:59:02;0.20;99.90
3086;DHT22;52812;48.960;9.108;2024-03-07T06:01:30;0.10;99.90
3086;DHT22;52812;48.960;9.108;2024-03-07T06:03:58;0.20;99.90
3086;DHT22;52812;48.960;9.108;2024-03-07T06:06:24;0.20;99.90
3086;DHT22;52812;48.960;9.108;2024-03-07T06:08:50;0.20;99.90
3086;DHT22;52812;48.960;9.108;2024-03-07T06:11:15;0.20;99.90
3086;DHT22;52812;48.960;9.108;2024-03-07T06:13:46;0.20;99.90
3086;DHT22;52812;48.960;9.108;2024-03-07T06:16:12;0.20;99.90
3086;DHT22;52812;48.960;9.108;2024-03-07T06:18:42;0.30;99.90
3086;DHT22;52812;48.960;9.108;2024-03-07T06:21:08;0.30;99.90
3086;DHT22;52812;48.960;9.108;2024-03-07T06:23:34;0.40;99.90
3086;DHT22;52812;48.960;9.108;2024-03-07T06:26:00;0.40;99.90
3086;DHT22;52812;48.960;9.108;2024-03-07T06:28:26;0.50;99.90
3086;DHT22;52812;48.960;9.108;2024-03-07T06:30:54;0.60;99.90
3086;DHT22;52812;48.960;9.108;2024-03-07T06:33:20;0.80;99.90
3086;DHT22;52812;48.960;9.108;2024-03-07T06:35:47;0.90;99.90
3086;DHT22;52812;48.960;9.108;2024-03-07T06:38:13;1.00;99.90
3086;DHT22;52812;48.960;9.108;2024-03-07T06:40:40;1.10;99.90
3086;DHT22;52812;48.960;9.108;2024-03-07T06:43:06;1.20;99.90
3086;DHT22;52812;48.960;9.108;2024-03-07T06:45:32;1.20;99.90
3086;DHT22;52812;48.960;9.108;2024-03-07T06:47:58;1.30;99.90
3086;DHT22;52812;48.960;9.108;2024-03-07T06:50:23;1.40;99.90
3086;DHT22;52812;48.960;9.108;2024-03-07T06:52:49;1.60;99.90
3086;DHT22;52812;48.960;9.108;2024-03-07T06:55:16;1.70;99.90
3086;DHT22;52812;48.960;9.108;2024-03-07T06:57:45;1.80;99.90
3086;DHT22;52812;48.960;9.108;2024-03-07T07:00:11;1.90;99.90
3086;DHT22;52812;48.960;9.108;2024-03-07T07:02:41;2.00;99.90
3086;DHT22;52812;48.960;9.108;2024-03-07T07:05:09;2.20;99.90
3086;DHT22;52812;48.960;9.108;2024-03-07T07:07:38;2.50;99.90
3086;DHT22;52812;48.960;9.108;2024-03-07T07:10:06;2.60;99.90
3086;DHT22;52812;48.960;9.108;2024-03-07T07:12:38;2.90;99.90
3086;DHT22;52812;48.960;9.108;2024-03-07T07:15:04;3.20;99.90
3086;DHT22;52812;48.960;9.108;2024-03-07T07:17:30;3.40;99.90
3086;DHT22;52812;48.960;9.108;2024-03-07T07:19:59;3.50;99.90
3086;DHT22;52812;48.960;9.108;2024-03-07T07:22:25;3.70;99.90
3086;DHT22;52812;48.960;9.108;2024-03-07T07:24:51;3.70;99.90
3086;DHT22;52812;48.960;9.108;2024-03-07T07:27:17;3.80;99.90
3086;DHT22;52812;48.960;9.108;2024-03-07T07:29:44;3.90;99.90
3086;DHT22;52812;48.960;9.108;2024-03-07T07:32:09;3.90;99.90
3086;DHT22;52812;48.960;9.108;2024-03-07T07:34:37;4.00;99.90
3086;DHT22;52812;48.960;9.108;2024-03-07T07:37:04;4.10;99.90
3086;DHT22;52812;48.960;9.108;2024-03-07T07:39:29;4.20;99.90
3086;DHT22;52812;48.960;9.108;2024-03-07T07:41:55;4.20;99.90
3086;DHT22;52812;48.960;9.108;2024-03-07T07:44:20;4.30;99.90
3086;DHT22;52812;48.960;9.108;2024-03-07T07:46:47;4.50;99.90
3086;DHT22;52812;48.960;9.108;2024-03-07T07:49:14;4.50;99.90
3086;DHT22;52812;48.960;9.108;2024-03-07T07:51:41;4.50;99.90
3086;DHT22;52812;48.960;9.108;2024-03-07T07:54:07;4.60;99.90
3086;DHT22;52812;48.960;9.108;2024-03-07T07:56:34;4.90;99.90
3086;DHT22;52812;48.960;9.108;2024-03-07T07:59:01;5.40;99.90
3086;DHT22;52812;48.960;9.108;2024-03-07T08:01:26;5.60;99.90
3086;DHT22;52812;48.960;9.108;2024-03-07T08:03:52;5.50;99.90
3086;DHT22;52812;48.960;9.108;2024-03-07T08:06:19;5.60;99.90
3086;DHT22;52812;48.960;9.108;2024-03-07T08:08:45;5.70;99.90
3086;DHT22;52812;48.960;9.108;2024-03-07T08:11:11;5.60;99.90
3086;DHT22;52812;48.960;9.108;2024-03-07T08:13:40;5.50;99.90
3086;DHT22;52812;48.960;9.108;2024-03-07T08:16:05;5.60;99.90
3086;DHT22;52812;48.960;9.108;2024-03-07T08:18:31;5.70;99.90
3086;DHT22;52812;48.960;9.108;2024-03-07T08:20:57;5.90;99.90
3086;DHT22;52812;48.960;9.108;2024-03-07T08:23:23;5.80;99.90
3086;DHT22;52812;48.960;9.108;2024-03-07T08:25:52;5.70;99.90
3086;DHT22;52812;48.960;9.108;2024-03-07T08:28:18;5.70;99.90
3086;DHT22;52812;48.960;9.108;2024-03-07T08:30:44;5.80;99.90
3086;DHT22;52812;48.960;9.108;2024-03-07T08:33:10;5.60;99.90
3086;DHT22;52812;48.960;9.108;2024-03-07T08:35:36;5.80;99.90
3086;DHT22;52812;48.960;9.108;2024-03-07T08:38:01;5.90;99.90
3086;DHT22;52812;48.960;9.108;2024-03-07T08:40:28;5.80;99.90
3086;DHT22;52812;48.960;9.108;2024-03-07T08:42:58;5.70;99.90
3086;DHT22;52812;48.960;9.108;2024-03-07T08:45:25;5.50;99.90
3086;DHT22;52812;48.960;9.108;2024-03-07T08:47:53;5.30;99.90
3086;DHT22;52812;48.960;9.108;2024-03-07T08:50:22;5.40;99.90
3086;DHT22;52812;48.960;9.108;2024-03-07T08:52:48;5.40;99.90
3086;DHT22;52812;48.960;9.108;2024-03-07T08:55:16;5.20;99.90
3086;DHT22;52812;48.960;9.108;2024-03-07T08:57:42;4.80;99.90
3086;DHT22;52812;48.960;9.108;2024-03-07T09:00:13;4.70;99.90
3086;DHT22;52812;48.960;9.108;2024-03-07T09:02:49;4.60;99.90
3086;DHT22;52812;48.960;9.108;2024-03-07T09:05:18;4.90;99.90
3086;DHT22;52812;48.960;9.108;2024-03-07T09:07:44;5.10;99.90
3086;DHT22;52812;48.960;9.108;2024-03-07T09:10:11;4.90;99.90
3086;DHT22;52812;48.960;9.108;2024-03-07T09:12:37;4.90;99.90
3086;DHT22;52812;48.960;9.108;2024-03-07T09:15:04;5.10;99.90
3086;DHT22;52812;48.960;9.108;2024-03-07T09:17:30;5.20;99.90
3086;DHT22;52812;48.960;9.108;2024-03-07T09:19:55;5.40;99.90
3086;DHT22;52812;48.960;9.108;2024-03-07T09:22:21;5.10;99.90
3086;DHT22;52812;48.960;9.108;2024-03-07T09:24:46;4.90;99.90
3086;DHT22;52812;48.960;9.108;2024-03-07T09:27:12;4.70;99.90
3086;DHT22;52812;48.960;9.108;2024-03-07T09:29:40;4.90;99.90
3086;DHT22;52812;48.960;9.108;2024-03-07T09:32:06;5.00;99.90
3086;DHT22;52812;48.960;9.108;2024-03-07T09:34:34;5.10;99.90
3086;DHT22;52812;48.960;9.108;2024-03-07T09:37:03;5.10;99.90
3086;DHT22;52812;48.960;9.108;2024-03-07T09:39:29;5.30;99.90
3086;DHT22;52812;48.960;9.108;2024-03-07T09:41:57;5.30;99.90
3086;DHT22;52812;48.960;9.108;2024-03-07T09:44:24;5.50;99.90
3086;DHT22;52812;48.960;9.108;2024-03-07T09:46:54;5.60;99.90
3086;DHT22;52812;48.960;9.108;2024-03-07T09:49:20;5.50;99.90
3086;DHT22;52812;48.960;9.108;2024-03-07T09:51:47;5.40;99.90
3086;DHT22;52812;48.960;9.108;2024-03-07T09:54:12;5.40;99.90
3086;DHT22;52812;48.960;9.108;2024-03-07T09:56:41;5.40;99.90
3086;DHT22;52812;48.960;9.108;2024-03-07T09:59:11;5.40;99.90
3086;DHT22;52812;48.960;9.108;2024-03-07T10:01:39;5.60;99.90
3086;DHT22;52812;48.960;9.108;2024-03-07T10:04:10;5.70;99.90
3086;DHT22;52812;48.960;9.108;2024-03-07T10:06:41;5.80;99.90
3086;DHT22;52812;48.960;9.108;2024-03-07T10:09:07;5.80;99.90
3086;DHT22;52812;48.960;9.108;2024-03-07T10:11:33;5.70;99.90
3086;DHT22;52812;48.960;9.108;2024-03-07T10:14:02;6.00;99.90
3086;DHT22;52812;48.960;9.108;2024-03-07T10:16:32;6.00;99.90
3086;DHT22;52812;48.960;9.108;2024-03-07T10:18:58;6.00;99.90
3086;DHT22;52812;48.960;9.108;2024-03-07T10:21:26;5.90;99.90
3086;DHT22;52812;48.960;9.108;2024-03-07T10:24:04;6.00;99.90
3086;DHT22;52812;48.960;9.108;2024-03-07T10:26:36;6.30;99.90
3086;DHT22;52812;48.960;9.108;2024-03-07T10:29:06;6.60;99.90
3086;DHT22;52812;48.960;9.108;2024-03-07T10:31:34;6.80;99.90
3086;DHT22;52812;48.960;9.108;2024-03-07T10:34:03;7.20;99.90
3086;DHT22;52812;48.960;9.108;2024-03-07T10:36:32;7.00;99.90
3086;DHT22;52812;48.960;9.108;2024-03-07T10:39:02;6.80;99.90
3086;DHT22;52812;48.960;9.108;2024-03-07T10:41:45;7.00;99.90
3086;DHT22;52812;48.960;9.108;2024-03-07T10:44:36;7.10;99.90
3086;DHT22;52812;48.960;9.108;2024-03-07T10:47:08;7.20;99.90
3086;DHT22;52812;48.960;9.108;2024-03-07T10:49:37;7.40;99.90
3086;DHT22;52812;48.960;9.108;2024-03-07T10:52:28;7.60;99.90
3086;DHT22;52812;48.960;9.108;2024-03-07T10:55:34;7.40;99.90
3086;DHT22;52812;48.960;9.108;2024-03-07T10:58:42;7.50;99.90
3086;DHT22;52812;48.960;9.108;2024-03-07T11:01:10;7.60;99.90
3086;DHT22;52812;48.960;9.108;2024-03-07T11:03:37;7.80;99.90
3086;DHT22;52812;48.960;9.108;2024-03-07T11:06:06;8.00;99.90
3086;DHT22;52812;48.960;9.108;2024-03-07T11:08:35;7.80;99.90
3086;DHT22;52812;48.960;9.108;2024-03-07T11:11:02;7.70;99.90
3086;DHT22;52812;48.960;9.108;2024-03-07T11:13:28;7.60;99.90
3086;DHT22;52812;48.960;9.108;2024-03-07T11:15:55;7.60;99.90
3086;DHT22;52812;48.960;9.108;2024-03-07T11:18:23;7.90;99.90
3086;DHT22;52812;48.960;9.108;2024-03-07T11:20:49;7.90;99.90
3086;DHT22;52812;48.960;9.108;2024-03-07T11:23:29;7.90;99.90
3086;DHT22;52812;48.960;9.108;2024-03-07T11:26:08;8.10;99.90
3086;DHT22;52812;48.960;9.108;2024-03-07T11:28:35;8.30;99.90
3086;DHT22;52812;48.960;9.108;2024-03-07T11:33:37;8.40;99.90
3086;DHT22;52812;48.960;9.108;2024-03-07T11:36:09;8.30;99.90
3086;DHT22;52812;48.960;9.108;2024-03-07T11:38:38;8.40;99.90
3086;DHT22;52812;48.960;9.108;2024-03-07T11:41:04;8.40;99.90
3086;DHT22;52812;48.960;9.108;2024-03-07T11:43:33;8.50;99.90
3086;DHT22;52812;48.960;9.108;2024-03-07T11:45:59;8.40;99.90
3086;DHT22;52812;48.960;9.108;2024-03-07T11:48:25;8.20;99.90
3086;DHT22;52812;48.960;9.108;2024-03-07T11:50:51;8.00;99.90
3086;DHT22;52812;48.960;9.108;2024-03-07T11:53:16;7.90;99.90
3086;DHT22;52812;48.960;9.108;2024-03-07T11:55:43;7.70;99.90
3086;DHT22;52812;48.960;9.108;2024-03-07T11:58:17;7.80;99.90
3086;DHT22;52812;48.960;9.108;2024-03-07T12:00:44;7.80;99.90
3086;DHT22;52812;48.960;9.108;2024-03-07T12:03:13;7.80;99.90
3086;DHT22;52812;48.960;9.108;2024-03-07T12:05:40;8.10;99.90
3086;DHT22;52812;48.960;9.108;2024-03-07T12:08:10;8.10;99.90
3086;DHT22;52812;48.960;9.108;2024-03-07T12:10:37;8.30;99.90
3086;DHT22;52812;48.960;9.108;2024-03-07T12:13:05;8.30;99.90
3086;DHT22;52812;48.960;9.108;2024-03-07T12:15:31;8.20;99.90
3086;DHT22;52812;48.960;9.108;2024-03-07T12:17:57;8.10;99.90
3086;DHT22;52812;48.960;9.108;2024-03-07T12:20:23;8.10;99.90
3086;DHT22;52812;48.960;9.108;2024-03-07T12:22:59;8.30;99.90
3086;DHT22;52812;48.960;9.108;2024-03-07T12:25:28;8.40;99.90
3086;DHT22;52812;48.960;9.108;2024-03-07T12:28:07;8.40;99.90
3086;DHT22;52812;48.960;9.108;2024-03-07T12:30:53;8.40;99.90
3086;DHT22;52812;48.960;9.108;2024-03-07T12:33:20;8.60;99.90
3086;DHT22;52812;48.960;9.108;2024-03-07T12:35:47;8.40;99.90
3086;DHT22;52812;48.960;9.108;2024-03-07T12:38:15;8.40;99.90
3086;DHT22;52812;48.960;9.108;2024-03-07T12:40:45;8.40;99.90
3086;DHT22;52812;48.960;9.108;2024-03-07T12:43:21;8.40;99.90
3086;DHT22;52812;48.960;9.108;2024-03-07T12:45:53;8.40;99.90
3086;DHT22;52812;48.960;9.108;2024-03-07T12:48:20;8.30;99.90
3086;DHT22;52812;48.960;9.108;2024-03-07T12:50:49;8.30;99.90
3086;DHT22;52812;48.960;9.108;2024-03-07T12:53:22;8.40;99.90
3086;DHT22;52812;48.960;9.108;2024-03-07T12:55:48;8.40;99.90
3086;DHT22;52812;48.960;9.108;2024-03-07T12:58:14;8.50;99.90
3086;DHT22;52812;48.960;9.108;2024-03-07T13:00:40;8.50;99.90
3086;DHT22;52812;48.960;9.108;2024-03-07T13:03:07;8.50;99.90
3086;DHT22;52812;48.960;9.108;2024-03-07T13:05:34;8.60;99.90
3086;DHT22;52812;48.960;9.108;2024-03-07T13:07:59;8.50;99.90
3086;DHT22;52812;48.960;9.108;2024-03-07T13:10:25;8.50;99.90
3086;DHT22;52812;48.960;9.108;2024-03-07T13:12:51;8.50;99.90
3086;DHT22;52812;48.960;9.108;2024-03-07T13:15:18;8.50;99.90
3086;DHT22;52812;48.960;9.108;2024-03-07T13:17:43;8.40;99.90
3086;DHT22;52812;48.960;9.108;2024-03-07T13:20:11;8.40;99.90
3086;DHT22;52812;48.960;9.108;2024-03-07T13:22:43;8.30;99.90
3086;DHT22;52812;48.960;9.108;2024-03-07T13:25:23;8.40;99.90
3086;DHT22;52812;48.960;9.108;2024-03-07T13:30:28;8.50;99.90
3086;DHT22;52812;48.960;9.108;2024-03-07T13:32:55;8.50;99.90
3086;DHT22;52812;48.960;9.108;2024-03-07T13:35:21;8.40;99.90
3086;DHT22;52812;48.960;9.108;2024-03-07T13:37:48;8.40;99.90
3086;DHT22;52812;48.960;9.108;2024-03-07T13:40:14;8.50;99.90
3086;DHT22;52812;48.960;9.108;2024-03-07T13:42:50;8.50;99.90
3086;DHT22;52812;48.960;9.108;2024-03-07T13:45:20;8.50;99.90
3086;DHT22;52812;48.960;9.108;2024-03-07T13:47:47;8.40;99.90
3086;DHT22;52812;48.960;9.108;2024-03-07T13:50:17;8.50;99.90
3086;DHT22;52812;48.960;9.108;2024-03-07T13:52:45;8.50;99.90
3086;DHT22;52812;48.960;9.108;2024-03-07T13:55:34;8.60;99.90
3086;DHT22;52812;48.960;9.108;2024-03-07T13:58:05;8.50;99.90
3086;DHT22;52812;48.960;9.108;2024-03-07T14:21:08;8.30;99.90
3086;DHT22;52812;48.960;9.108;2024-03-07T14:26:46;8.30;99.90
3086;DHT22;52812;48.960;9.108;2024-03-07T14:32:01;8.30;99.90
3086;DHT22;52812;48.960;9.108;2024-03-07T14:37:04;8.30;99.90
3086;DHT22;52812;48.960;9.108;2024-03-07T14:39:30;8.30;99.90
3086;DHT22;52812;48.960;9.108;2024-03-07T14:42:04;8.30;99.90
3086;DHT22;52812;48.960;9.108;2024-03-07T14:44:36;8.40;99.90
3086;DHT22;52812;48.960;9.108;2024-03-07T14:47:04;8.40;99.90
3086;DHT22;52812;48.960;9.108;2024-03-07T14:49:37;8.30;99.90
3086;DHT22;52812;48.960;9.108;2024-03-07T14:52:04;8.30;99.90
3086;DHT22;52812;48.960;9.108;2024-03-07T14:54:36;8.40;99.90
3086;DHT22;52812;48.960;9.108;2024-03-07T14:57:04;8.40;99.90
3086;DHT22;52812;48.960;9.108;2024-03-07T14:59:30;8.20;99.90
3086;DHT22;52812;48.960;9.108;2024-03-07T15:01:56;8.10;99.90
3086;DHT22;52812;48.960;9.108;2024-03-07T15:04:25;8.20;99.90
3086;DHT22;52812;48.960;9.108;2024-03-07T15:06:51;8.20;99.90
3086;DHT22;52812;48.960;9.108;2024-03-07T15:09:17;8.20;99.90
3086;DHT22;52812;48.960;9.108;2024-03-07T15:11:44;8.20;99.90
3086;DHT22;52812;48.960;9.108;2024-03-07T15:14:10;8.00;99.90
3086;DHT22;52812;48.960;9.108;2024-03-07T15:16:36;8.00;99.90
3086;DHT22;52812;48.960;9.108;2024-03-07T15:19:06;8.10;99.90
3086;DHT22;52812;48.960;9.108;2024-03-07T15:21:33;8.10;99.90
3086;DHT22;52812;48.960;9.108;2024-03-07T15:23:59;8.10;99.90
3086;DHT22;52812;48.960;9.108;2024-03-07T15:26:26;8.20;99.90
3086;DHT22;52812;48.960;9.108;2024-03-07T15:28:54;8.20;99.90
3086;DHT22;52812;48.960;9.108;2024-03-07T15:31:20;8.10;99.90
3086;DHT22;52812;48.960;9.108;2024-03-07T15:33:46;8.10;99.90
3086;DHT22;52812;48.960;9.108;2024-03-07T15:36:13;8.00;99.90
3086;DHT22;52812;48.960;9.108;2024-03-07T15:38:39;8.10;99.90
3086;DHT22;52812;48.960;9.108;2024-03-07T15:41:05;8.00;99.90
3086;DHT22;52812;48.960;9.108;2024-03-07T15:43:33;8.00;99.90
3086;DHT22;52812;48.960;9.108;2024-03-07T15:45:59;8.00;99.90
3086;DHT22;52812;48.960;9.108;2024-03-07T15:48:25;7.90;99.90
3086;DHT22;52812;48.960;9.108;2024-03-07T15:50:52;7.90;99.90
3086;DHT22;52812;48.960;9.108;2024-03-07T15:53:18;8.00;99.90
3086;DHT22;52812;48.960;9.108;2024-03-07T15:55:44;8.10;99.90
3086;DHT22;52812;48.960;9.108;2024-03-07T15:58:09;8.00;99.90
3086;DHT22;52812;48.960;9.108;2024-03-07T16:00:36;8.00;99.90
3086;DHT22;52812;48.960;9.108;2024-03-07T16:03:06;7.90;99.90
3086;DHT22;52812;48.960;9.108;2024-03-07T16:05:39;7.80;99.90
3086;DHT22;52812;48.960;9.108;2024-03-07T16:08:14;7.80;99.90
3086;DHT22;52812;48.960;9.108;2024-03-07T16:10:41;7.80;99.90
3086;DHT22;52812;48.960;9.108;2024-03-07T16:13:09;7.70;99.90
3086;DHT22;52812;48.960;9.108;2024-03-07T16:15:36;7.70;99.90
3086;DHT22;52812;48.960;9.108;2024-03-07T16:18:02;7.60;99.90
3086;DHT22;52812;48.960;9.108;2024-03-07T16:20:29;7.60;99.90
3086;DHT22;52812;48.960;9.108;2024-03-07T16:22:55;7.50;99.90
3086;DHT22;52812;48.960;9.108;2024-03-07T16:25:21;7.50;99.90
3086;DHT22;52812;48.960;9.108;2024-03-07T16:27:48;7.40;99.90
3086;DHT22;52812;48.960;9.108;2024-03-07T16:30:14;7.50;99.90
3086;DHT22;52812;48.960;9.108;2024-03-07T16:32:42;7.40;99.90
3086;DHT22;52812;48.960;9.108;2024-03-07T16:35:08;7.40;99.90
3086;DHT22;52812;48.960;9.108;2024-03-07T16:37:38;7.40;99.90
3086;DHT22;52812;48.960;9.108;2024-03-07T16:40:12;7.30;99.90